Etusivu
METAR-TAF:

METAR-TAF

Lentoasemat :

Wemindji, Quebec, Kanada

Leveyspiiri: 53-00-39N, Pituuspiiri: 078-49-49W, korkeus merenpinnasta: 15 m

Tämänhetkinen sää

Tämä raportti tehtiin 38 minuuttia sitten, kello 20.00 UTC
Tuuli 7 kn lounaasta puuskistuen 15 kn:hen
Lämpötila -6°C
Kosteus 86%
Ilmanpaine 1000 hPa
Näkyvyys: 4.8 km
Pilvistä 1300 ft:n korkeudessa
heikkoa lumisadetta

METAR: CYNC 032000Z 23007G15KT 3SM -SN OVC013 M06/M08 A2953 RMK SC8 SF ASOCTD SLP003

Aika: 15:38 (20:38 UTC)


TAF: puuttuu

Säähavainnot ja -ennusteet yli 4000 lentoasemalta (METAR- ja TAF-raportit).

Käytössä olevat sääasemat on merkitty karttaan keltaisilla ja punaisilla pisteillä.

Aseta hiiri pisteen päälle nähdäksesi sääaseman nimen.

Klikkaa sitten nähdäksesi säähavainnot ja -ennusteet.

Kartan vaihtaminen: klikkaa mustalla rastilla varustettuja vihreitä pisteitä, niin voit zoomata sisään; viivalla varustettua vihreää pistettä, niin voit zoomata ulos tai vihreitä nuolia, niin pääset viereisille kartoille.


METAR-TAF: